Time;durP1;ratioP1;P1;durP2;ratioP2;P2;SDS_P1;SDS_P2;PMS_P1;PMS_P2;Temp;Humidity;BMP_temperature;BMP_pressure;BME280_temperature;BME280_humidity;BME280_pressure;Samples;Min_cycle;Max_cycle;Signal;HPM_P1;HPM_P2
2021/05/02 00:01:05;;;;;;;24.20;21.87;;;;;;;6.33;100.00;97188.72;4999524;28;20612;-70
2021/05/02 00:03:32;;;;;;;24.63;22.33;;;;;;;6.29;100.00;97188.22;5001031;28;20263;-70
2021/05/02 00:05:59;;;;;;;23.03;20.83;;;;;;;6.21;100.00;97189.00;4999856;28;20217;-69
2021/05/02 00:08:27;;;;;;;22.20;20.10;;;;;;;6.24;100.00;97187.84;5005539;28;20208;-70
2021/05/02 00:10:54;;;;;;;20.13;18.30;;;;;;;6.12;100.00;97197.00;5002889;28;20205;-69
2021/05/02 00:13:22;;;;;;;20.93;18.83;;;;;;;6.11;100.00;97192.72;5001497;28;20224;-70
2021/05/02 00:15:50;;;;;;;18.30;16.70;;;;;;;6.13;100.00;97191.59;5005385;28;20236;-69
2021/05/02 00:18:17;;;;;;;19.30;17.50;;;;;;;6.09;100.00;97190.25;5004532;28;20201;-69
2021/05/02 00:20:44;;;;;;;19.70;17.70;;;;;;;6.06;100.00;97195.78;5002213;28;20275;-67
2021/05/02 00:23:11;;;;;;;18.10;16.30;;;;;;;6.05;100.00;97200.25;5006118;28;20920;-70
2021/05/02 00:25:38;;;;;;;18.37;16.77;;;;;;;6.00;100.00;97210.38;5004654;28;20582;-68
2021/05/02 00:28:07;;;;;;;17.43;15.90;;;;;;;6.03;100.00;97209.25;5004712;28;20209;-69
2021/05/02 00:30:34;;;;;;;18.73;17.03;;;;;;;5.96;100.00;97213.47;5002210;28;20609;-71
2021/05/02 00:33:03;;;;;;;17.90;16.30;;;;;;;5.98;100.00;97214.97;5005726;28;20220;-68
2021/05/02 00:35:30;;;;;;;17.37;15.77;;;;;;;5.96;100.00;97216.94;5003142;28;20231;-70
2021/05/02 00:37:57;;;;;;;17.27;15.67;;;;;;;5.94;100.00;97218.88;5002202;28;20618;-69
2021/05/02 00:40:35;;;;;;;16.27;14.77;;;;;;;5.92;100.00;97216.41;5005553;28;20211;-70
2021/05/02 00:43:05;;;;;;;16.50;14.70;;;;;;;5.96;100.00;97224.81;5006049;28;20218;-70
2021/05/02 00:45:40;;;;;;;16.83;15.43;;;;;;;5.91;100.00;97227.91;5001991;28;20212;-69
2021/05/02 00:48:11;;;;;;;17.20;15.63;;;;;;;5.92;100.00;97232.19;5004062;28;20213;-69
2021/05/02 00:50:47;;;;;;;16.53;14.97;;;;;;;5.91;100.00;97234.97;5007079;28;20216;-70
2021/05/02 00:53:22;;;;;;;16.00;14.57;;;;;;;5.86;100.00;97235.44;5004087;28;20223;-69
2021/05/02 00:55:55;;;;;;;16.33;14.90;;;;;;;5.87;100.00;97233.59;5005485;28;20201;-68
2021/05/02 00:58:33;;;;;;;16.90;15.43;;;;;;;5.85;100.00;97232.94;5000671;28;20638;-70
2021/05/02 01:01:01;;;;;;;16.60;15.03;;;;;;;5.82;100.00;97231.44;5004605;28;20227;-69
2021/05/02 01:03:32;;;;;;;16.53;15.03;;;;;;;5.80;100.00;97246.56;5002992;28;20229;-69
2021/05/02 01:06:03;;;;;;;16.73;15.23;;;;;;;5.85;100.00;97246.09;5000008;28;20205;-69
2021/05/02 01:08:30;;;;;;;17.63;16.13;;;;;;;5.74;100.00;97245.34;5002061;28;20693;-69
2021/05/02 01:10:59;;;;;;;16.77;15.37;;;;;;;5.74;100.00;97245.34;5004372;28;20205;-69
2021/05/02 01:13:27;;;;;;;16.90;15.40;;;;;;;5.77;100.00;97249.50;5004023;28;20578;-69
2021/05/02 01:15:58;;;;;;;16.33;14.77;;;;;;;5.76;100.00;97253.09;5002230;28;20201;-69
2021/05/02 01:18:26;;;;;;;18.10;16.40;;;;;;;5.72;100.00;97259.66;5003007;28;20601;-69
2021/05/02 01:20:57;;;;;;;17.90;16.30;;;;;;;5.70;100.00;97262.41;5004863;28;20243;-70
2021/05/02 01:23:26;;;;;;;18.33;16.63;;;;;;;5.77;100.00;97263.44;5002668;28;20221;-69
2021/05/02 01:25:55;;;;;;;17.57;15.93;;;;;;;5.73;100.00;97264.72;5004622;28;20329;-68
2021/05/02 01:28:22;;;;;;;17.90;16.33;;;;;;;5.70;100.00;97267.66;5000602;28;20216;-68
2021/05/02 01:30:50;;;;;;;18.70;17.03;;;;;;;5.72;100.00;97264.91;5003445;28;20213;-69
2021/05/02 01:33:17;;;;;;;18.43;16.80;;;;;;;5.67;100.00;97267.13;4998450;28;20225;-70
2021/05/02 01:35:45;;;;;;;18.90;17.30;;;;;;;5.62;100.00;97268.41;4996701;28;20259;-69
2021/05/02 01:38:12;;;;;;;19.07;17.27;;;;;;;5.61;100.00;97279.09;5004315;28;20580;-69
2021/05/02 01:40:40;;;;;;;18.43;16.77;;;;;;;5.65;100.00;97276.00;5004464;28;20216;-69
2021/05/02 01:43:07;;;;;;;20.13;18.20;;;;;;;5.66;100.00;97282.09;4999993;28;20476;-70
2021/05/02 01:45:34;;;;;;;18.97;17.17;;;;;;;5.61;100.00;97279.09;4998774;28;20680;-69
2021/05/02 01:48:05;;;;;;;20.57;18.57;;;;;;;5.64;100.00;97281.41;5001502;28;20629;-69
2021/05/02 01:50:36;;;;;;;19.33;17.57;;;;;;;5.61;100.00;97286.97;5000298;28;20535;-69
2021/05/02 01:53:03;;;;;;;20.33;18.33;;;;;;;5.61;100.00;97287.78;5000427;28;20218;-69
2021/05/02 01:55:31;;;;;;;20.93;18.47;;;;;;;5.67;100.00;97289.00;5005350;28;20572;-69
2021/05/02 01:57:59;;;;;;;19.17;17.53;;;;;;;5.61;100.00;97290.41;5000417;28;20205;-69
2021/05/02 02:00:40;;;;;;;19.13;17.33;;;;;;;5.69;100.00;97292.31;5004162;28;20593;-70
2021/05/02 02:03:08;;;;;;;19.93;18.17;;;;;;;5.64;100.00;97292.75;5002297;28;20248;-69
2021/05/02 02:05:36;;;;;;;20.60;18.63;;;;;;;5.70;100.00;97290.50;5005791;28;20205;-69
2021/05/02 02:08:05;;;;;;;19.13;17.30;;;;;;;5.68;100.00;97301.16;5003627;28;20209;-69
2021/05/02 02:10:34;;;;;;;21.97;20.07;;;;;;;5.61;100.00;97297.50;5000606;28;20448;-69
2021/05/02 02:13:09;;;;;;;20.20;18.37;;;;;;;5.71;100.00;97300.06;5005050;28;20235;-69
2021/05/02 02:15:36;;;;;;;21.50;19.20;;;;;;;5.65;100.00;97299.66;5002365;28;20213;-69
2021/05/02 02:18:03;;;;;;;21.97;19.93;;;;;;;5.63;100.00;97308.69;5001766;28;20508;-69
2021/05/02 02:20:38;;;;;;;21.60;19.53;;;;;;;5.68;100.00;97303.78;5000346;28;20662;-69
2021/05/02 02:23:09;;;;;;;21.40;19.53;;;;;;;5.65;100.00;97302.28;5000961;28;20240;-70
2021/05/02 02:25:41;;;;;;;22.73;20.43;;;;;;;5.65;100.00;97309.34;5001095;28;20255;-69
2021/05/02 02:28:13;;;;;;;22.70;20.53;;;;;;;5.66;100.00;97308.38;5002494;28;20212;-70
2021/05/02 02:30:41;;;;;;;22.70;20.50;;;;;;;5.65;100.00;97315.44;4998145;28;20217;-69
2021/05/02 02:33:08;;;;;;;21.77;19.77;;;;;;;5.68;100.00;97321.34;5004347;28;20231;-69
2021/05/02 02:35:44;;;;;;;22.20;20.10;;;;;;;5.63;100.00;97313.94;5001482;28;20283;-69
2021/05/02 02:38:14;;;;;;;24.07;21.73;;;;;;;5.64;100.00;97318.22;5001815;28;20212;-70
2021/05/02 02:40:42;;;;;;;23.33;21.17;;;;;;;5.54;100.00;97327.97;5002284;28;20614;-70
2021/05/02 02:43:11;;;;;;;23.10;21.00;;;;;;;5.53;100.00;97316.63;5001735;28;20241;-69
2021/05/02 02:45:39;;;;;;;23.73;21.53;;;;;;;5.60;100.00;97320.31;5000234;28;20205;-69
2021/05/02 02:48:06;;;;;;;22.53;20.40;;;;;;;5.59;100.00;97331.00;5004922;28;20680;-68
2021/05/02 02:50:34;;;;;;;22.43;20.33;;;;;;;5.52;100.00;97333.38;5002488;28;20201;-69
2021/05/02 02:53:03;;;;;;;23.33;21.03;;;;;;;5.43;100.00;97329.00;5003723;28;20228;-70
2021/05/02 02:55:31;;;;;;;22.77;20.73;;;;;;;5.45;100.00;97335.75;5002922;28;20209;-69
2021/05/02 02:57:59;;;;;;;23.13;20.83;;;;;;;5.43;100.00;97337.72;5006399;28;20212;-70
2021/05/02 03:00:28;;;;;;;22.17;20.07;;;;;;;5.38;100.00;97350.47;5007983;28;20205;-68
2021/05/02 03:02:57;;;;;;;24.13;21.70;;;;;;;5.41;100.00;97352.78;5005282;28;20233;-69
2021/05/02 03:05:24;;;;;;;22.37;20.13;;;;;;;5.36;100.00;97355.03;5006776;28;20582;-69
2021/05/02 03:07:52;;;;;;;23.20;21.07;;;;;;;5.38;100.00;97360.16;5005963;28;20673;-68
2021/05/02 03:10:20;;;;;;;23.13;20.97;;;;;;;5.36;100.00;97365.56;5003627;28;20660;-68
2021/05/02 03:12:49;;;;;;;24.37;22.07;;;;;;;5.37;100.00;97367.19;5005487;28;20252;-68
2021/05/02 03:15:17;;;;;;;24.27;21.87;;;;;;;5.43;100.00;97363.19;5008167;28;20700;-69
2021/05/02 03:17:49;;;;;;;23.53;21.43;;;;;;;5.33;100.00;97369.31;5006486;28;20224;-69
2021/05/02 03:20:16;;;;;;;22.47;20.33;;;;;;;5.43;100.00;97376.31;5006774;28;20601;-68
2021/05/02 03:22:46;;;;;;;22.40;20.27;;;;;;;5.40;100.00;97377.41;5004457;28;20248;-69
2021/05/02 03:25:14;;;;;;;23.20;21.03;;;;;;;5.45;100.00;97384.88;5008538;28;20222;-68
2021/05/02 03:27:46;;;;;;;22.23;20.13;;;;;;;5.53;100.00;97392.84;5005865;28;20364;-68
2021/05/02 03:30:14;;;;;;;22.20;20.07;;;;;;;5.45;100.00;97393.56;5005935;28;20205;-69
2021/05/02 03:32:48;;;;;;;21.53;19.50;;;;;;;5.49;100.00;97397.59;5000980;28;20224;-69
2021/05/02 03:35:16;;;;;;;24.03;21.77;;;;;;;5.43;100.00;97399.97;5003604;28;20210;-70
2021/05/02 03:37:48;;;;;;;23.47;21.27;;;;;;;5.47;100.00;97401.31;4999945;28;20216;-72
2021/05/02 03:40:16;;;;;;;22.83;20.83;;;;;;;5.44;100.00;97405.06;5004080;28;20204;-73
2021/05/02 03:42:43;;;;;;;22.40;20.20;;;;;;;5.51;100.00;97410.56;5004335;28;20244;-72
2021/05/02 03:45:10;;;;;;;22.20;20.10;;;;;;;5.46;100.00;97415.44;4997703;28;20224;-72
2021/05/02 03:47:38;;;;;;;22.93;20.83;;;;;;;5.58;100.00;97413.44;5002166;28;20213;-72
2021/05/02 03:50:07;;;;;;;22.67;20.77;;;;;;;5.60;100.00;97424.63;5004063;28;20213;-72
2021/05/02 03:52:34;;;;;;;22.60;20.43;;;;;;;5.59;100.00;97426.44;5001310;28;20736;-72
2021/05/02 03:55:01;;;;;;;21.53;19.43;;;;;;;5.54;100.00;97438.38;5004484;28;20215;-71
2021/05/02 03:57:28;;;;;;;20.53;18.60;;;;;;;5.50;100.00;97435.19;5002010;28;20205;-72
2021/05/02 03:59:55;;;;;;;22.93;20.53;;;;;;;5.38;100.00;97445.06;5004355;28;20670;-72
2021/05/02 04:02:22;;;;;;;25.57;22.80;;;;;;;5.22;100.00;97450.91;5003014;28;20239;-71
2021/05/02 04:04:49;;;;;;;26.13;23.03;;;;;;;5.13;100.00;97454.41;5018021;28;20484;-72
2021/05/02 04:07:16;;;;;;;29.30;26.20;;;;;;;5.01;100.00;97451.13;5019984;28;20629;-73
2021/05/02 04:09:45;;;;;;;31.57;26.93;;;;;;;4.89;100.00;97469.69;5020643;28;20402;-71
2021/05/02 04:12:13;;;;;;;32.40;28.97;;;;;;;4.81;100.00;97473.97;5024006;28;20226;-71
2021/05/02 04:14:40;;;;;;;34.83;30.07;;;;;;;4.77;100.00;97471.63;5019561;28;20205;-70
2021/05/02 04:17:09;;;;;;;34.47;28.77;;;;;;;4.74;100.00;97486.84;5023306;28;20576;-71
2021/05/02 04:19:38;;;;;;;35.50;30.67;;;;;;;4.74;100.00;97492.91;5022925;28;20228;-72
2021/05/02 04:22:06;;;;;;;32.97;29.43;;;;;;;4.60;100.00;97494.16;5021857;28;20230;-70
2021/05/02 04:24:34;;;;;;;35.30;29.80;;;;;;;4.52;100.00;97501.88;5023427;28;20207;-69
2021/05/02 04:27:03;;;;;;;37.17;31.43;;;;;;;4.47;100.00;97512.78;5019064;28;20208;-72
2021/05/02 04:29:33;;;;;;;34.73;29.23;;;;;;;4.50;100.00;97516.94;5018980;28;20278;-72
2021/05/02 04:32:02;;;;;;;35.70;30.37;;;;;;;4.49;100.00;97523.97;5018190;28;20235;-69
2021/05/02 04:34:29;;;;;;;35.83;31.93;;;;;;;4.49;100.00;97518.72;5020667;28;20220;-71
2021/05/02 04:36:58;;;;;;;38.63;31.53;;;;;;;4.50;100.00;97532.69;5023507;28;20208;-72
2021/05/02 04:39:25;;;;;;;40.30;30.90;;;;;;;4.45;100.00;97532.28;5021353;28;20685;-70
2021/05/02 04:41:53;;;;;;;37.47;31.60;;;;;;;4.42;100.00;97537.78;5020719;28;20272;-68
2021/05/02 04:44:20;;;;;;;36.73;30.97;;;;;;;4.43;100.00;97547.31;5018178;28;20690;-71
2021/05/02 04:46:47;;;;;;;37.20;30.77;;;;;;;4.40;100.00;97553.66;5015191;28;20205;-70
2021/05/02 04:49:15;;;;;;;32.60;29.03;;;;;;;4.41;100.00;97557.94;5018458;28;20196;-71
2021/05/02 04:51:42;;;;;;;33.77;30.00;;;;;;;4.33;100.00;97561.22;5021065;28;20227;-70
2021/05/02 04:54:09;;;;;;;35.17;30.07;;;;;;;4.30;100.00;97561.50;5019250;28;20609;-71
2021/05/02 04:56:36;;;;;;;32.93;29.30;;;;;;;4.28;100.00;97576.56;5023133;28;20208;-71
2021/05/02 04:59:05;;;;;;;36.60;31.27;;;;;;;4.25;100.00;97576.81;5020349;28;20207;-70
2021/05/02 05:01:32;;;;;;;33.77;29.70;;;;;;;4.25;100.00;97586.50;5021200;28;20211;-70
2021/05/02 05:04:00;;;;;;;34.13;30.60;;;;;;;4.14;100.00;97597.91;5020554;28;20227;-71
2021/05/02 05:06:27;;;;;;;35.57;31.77;;;;;;;4.28;100.00;97594.91;5016397;28;20222;-70
2021/05/02 05:08:54;;;;;;;36.07;31.53;;;;;;;4.18;100.00;97605.41;5019116;28;20417;-70
2021/05/02 05:11:21;;;;;;;34.83;31.03;;;;;;;4.19;100.00;97612.31;5019916;28;20681;-70
2021/05/02 05:13:48;;;;;;;34.67;30.43;;;;;;;4.14;100.00;97611.03;5020798;28;20400;-71
2021/05/02 05:16:16;;;;;;;36.93;30.90;;;;;;;4.16;100.00;97619.59;5021116;28;20496;-71
2021/05/02 05:18:44;;;;;;;36.47;30.93;;;;;;;4.12;100.00;97615.59;5019804;28;20608;-71
2021/05/02 05:21:11;;;;;;;33.97;30.37;;;;;;;4.21;100.00;97625.28;5023571;28;20227;-70
2021/05/02 05:23:38;;;;;;;35.23;30.90;;;;;;;4.13;100.00;97628.56;5021037;28;20243;-71
2021/05/02 05:26:05;;;;;;;34.47;30.83;;;;;;;4.12;100.00;97634.75;5016677;28;20213;-72
2021/05/02 05:28:32;;;;;;;37.07;30.60;;;;;;;4.23;100.00;97633.03;5014576;28;20215;-71
2021/05/02 05:30:59;;;;;;;35.30;31.03;;;;;;;4.16;100.00;97637.97;5019236;28;20204;-72
2021/05/02 05:33:30;;;;;;;35.77;30.33;;;;;;;4.16;100.00;97640.56;5020180;28;20220;-71
2021/05/02 05:35:57;;;;;;;33.33;29.80;;;;;;;4.27;100.00;97648.34;5020740;28;20200;-71
2021/05/02 05:38:24;;;;;;;32.03;28.60;;;;;;;4.12;100.00;97650.50;5019253;28;20216;-72
2021/05/02 05:40:52;;;;;;;34.13;30.03;;;;;;;4.08;100.00;97658.78;5020629;28;20215;-72
2021/05/02 05:43:19;;;;;;;31.03;26.20;;;;;;;4.01;100.00;97659.31;5016210;28;20228;-71
2021/05/02 05:45:46;;;;;;;29.53;26.40;;;;;;;3.98;100.00;97669.22;5017103;28;20212;-71
2021/05/02 05:48:13;;;;;;;29.57;26.53;;;;;;;4.00;100.00;97665.50;5017260;28;20214;-71
2021/05/02 05:50:42;;;;;;;29.87;26.30;;;;;;;3.90;100.00;97661.97;5021170;28;20635;-71
2021/05/02 05:53:08;;;;;;;32.53;29.33;;;;;;;3.94;100.00;97675.69;5015764;28;20701;-71
2021/05/02 05:55:35;;;;;;;31.67;28.47;;;;;;;3.90;100.00;97672.47;5022002;28;20454;-71
2021/05/02 05:58:02;;;;;;;30.43;27.20;;;;;;;3.87;100.00;97685.84;5020958;28;20211;-71
2021/05/02 06:00:29;;;;;;;28.73;25.53;;;;;;;3.79;100.00;97686.50;5021870;28;20381;-71
2021/05/02 06:02:56;;;;;;;29.23;26.27;;;;;;;3.80;100.00;97687.31;5014761;28;20601;-71
2021/05/02 06:05:23;;;;;;;30.53;27.23;;;;;;;3.86;100.00;97692.03;5018024;28;20200;-72
2021/05/02 06:07:51;;;;;;;32.30;28.90;;;;;;;3.73;100.00;97703.56;5018075;28;20219;-72
2021/05/02 06:10:18;;;;;;;33.30;29.90;;;;;;;3.78;100.00;97703.16;5015183;28;20215;-72
2021/05/02 06:12:45;;;;;;;29.30;26.30;;;;;;;3.87;100.00;97704.19;5021786;28;20257;-72
2021/05/02 06:15:13;;;;;;;30.17;27.07;;;;;;;3.92;100.00;97704.63;5022335;28;20212;-72
2021/05/02 06:17:40;;;;;;;31.13;28.13;;;;;;;3.94;100.00;97712.38;5019507;28;20212;-71
2021/05/02 06:20:08;;;;;;;34.60;30.90;;;;;;;3.96;100.00;97711.28;5019547;28;20204;-71
2021/05/02 06:22:35;;;;;;;29.77;26.57;;;;;;;3.98;100.00;97709.38;5019150;28;20239;-72
2021/05/02 06:25:06;;;;;;;33.70;30.17;;;;;;;4.04;100.00;97708.00;5020753;28;20310;-71
2021/05/02 06:27:33;;;;;;;33.20;29.70;;;;;;;4.10;100.00;97712.72;5011237;28;20216;-72
2021/05/02 06:30:00;;;;;;;29.90;26.87;;;;;;;4.03;100.00;97712.44;5018553;28;20216;-71
2021/05/02 06:32:27;;;;;;;30.73;27.70;;;;;;;4.02;100.00;97718.66;5018739;28;20881;-71
2021/05/02 06:34:56;;;;;;;33.67;30.17;;;;;;;4.06;100.00;97716.56;5021373;28;21327;-71
2021/05/02 06:37:23;;;;;;;30.43;27.27;;;;;;;4.14;100.00;97719.38;5019571;28;20219;-71
2021/05/02 06:39:50;;;;;;;29.47;26.60;;;;;;;4.20;100.00;97724.13;5019996;28;20299;-71
2021/05/02 06:42:18;;;;;;;29.23;26.30;;;;;;;4.35;100.00;97714.09;5022563;28;20235;-71
2021/05/02 06:44:46;;;;;;;29.73;26.83;;;;;;;4.40;100.00;97721.59;5018438;28;20216;-71
2021/05/02 06:47:13;;;;;;;31.10;27.73;;;;;;;4.47;100.00;97719.28;5013792;28;20212;-71
2021/05/02 06:49:41;;;;;;;30.00;26.87;;;;;;;4.51;100.00;97722.44;5018118;28;20677;-73
2021/05/02 06:52:08;;;;;;;30.33;27.30;;;;;;;4.43;100.00;97723.13;5018202;28;20311;-70
2021/05/02 06:54:35;;;;;;;28.33;25.27;;;;;;;4.45;100.00;97736.94;5013390;28;20212;-72
2021/05/02 06:57:02;;;;;;;30.97;28.03;;;;;;;4.41;100.00;97733.75;5019502;28;20652;-70
2021/05/02 06:59:31;;;;;;;30.13;26.97;;;;;;;4.45;100.00;97740.38;5016253;28;20612;-64
2021/05/02 07:01:58;;;;;;;29.97;27.13;;;;;;;4.52;100.00;97745.09;5021428;28;20235;-65
2021/05/02 07:04:26;;;;;;;29.63;26.50;;;;;;;4.60;100.00;97740.88;5015922;28;20212;-65
2021/05/02 07:06:53;;;;;;;30.77;27.57;;;;;;;4.51;100.00;97743.44;5019356;28;20703;-64
2021/05/02 07:09:20;;;;;;;30.40;27.27;;;;;;;4.66;100.00;97747.38;5018930;28;20222;-64
2021/05/02 07:11:47;;;;;;;30.13;27.03;;;;;;;4.71;100.00;97753.06;5019196;28;20244;-63
2021/05/02 07:14:14;;;;;;;28.13;25.17;;;;;;;4.85;100.00;97749.25;5018358;28;20213;-65
2021/05/02 07:16:42;;;;;;;31.17;27.97;;;;;;;4.79;100.00;97760.28;5022615;28;20208;-63
2021/05/02 07:19:09;;;;;;;28.43;25.57;;;;;;;4.78;100.00;97753.38;5020873;28;20200;-64
2021/05/02 07:21:36;;;;;;;33.47;30.20;;;;;;;4.84;100.00;97759.88;5021546;28;20712;-70
2021/05/02 07:24:04;;;;;;;36.53;33.00;;;;;;;4.79;100.00;97752.41;5018843;28;20228;-71
2021/05/02 07:26:31;;;;;;;33.90;30.50;;;;;;;4.82;100.00;97757.41;5018860;28;20214;-70
2021/05/02 07:29:07;;;;;;;249.27;116.27;;;;;;;5.01;100.00;97761.03;5015394;28;20386;-70
2021/05/02 07:31:37;;;;;;;64.50;46.60;;;;;;;4.93;100.00;97759.91;5020792;28;20216;-70
2021/05/02 07:34:05;;;;;;;35.20;31.57;;;;;;;5.02;100.00;97760.91;5018296;28;20197;-69
2021/05/02 07:36:32;;;;;;;54.13;45.57;;;;;;;5.04;100.00;97761.59;5019330;28;20234;-69
2021/05/02 07:38:59;;;;;;;30.90;27.83;;;;;;;5.02;100.00;97775.81;5012087;28;20204;-70
2021/05/02 07:41:26;;;;;;;29.00;26.00;;;;;;;5.14;100.00;97773.91;5013858;28;20211;-70
2021/05/02 07:43:53;;;;;;;29.73;26.73;;;;;;;5.04;100.00;97781.75;5017483;28;20235;-70
2021/05/02 07:46:21;;;;;;;27.20;24.50;;;;;;;5.13;100.00;97783.63;5019580;28;20216;-71
2021/05/02 07:48:49;;;;;;;28.10;25.20;;;;;;;5.19;100.00;97787.47;5020944;28;20240;-71
2021/05/02 07:51:18;;;;;;;28.80;26.03;;;;;;;5.12;100.00;97795.09;5014766;28;20240;-70
2021/05/02 07:53:47;;;;;;;36.47;32.67;;;;;;;5.16;100.00;97799.09;5018456;28;20248;-70
2021/05/02 07:56:14;;;;;;;27.83;25.33;;;;;;;5.21;100.00;97799.53;5014159;28;20208;-71
2021/05/02 07:58:42;;;;;;;28.47;25.80;;;;;;;5.49;100.00;97809.38;5014566;28;20201;-71
2021/05/02 08:01:09;;;;;;;27.13;24.67;;;;;;;5.48;100.00;97813.81;5014571;28;20209;-70
2021/05/02 08:03:36;;;;;;;25.90;23.60;;;;;;;5.51;100.00;97804.81;5014711;28;20234;-70
2021/05/02 08:06:21;;;;;;;23.40;21.30;;;;;;;5.45;100.00;97814.06;5015210;28;20771;-70
2021/05/02 08:08:48;;;;;;;25.57;23.03;;;;;;;5.44;100.00;97817.66;5020187;28;20213;-70
2021/05/02 08:11:15;;;;;;;22.07;19.97;;;;;;;5.60;100.00;97816.34;5018625;28;20209;-70
2021/05/02 08:13:42;;;;;;;23.60;21.53;;;;;;;5.61;100.00;97818.81;5019885;28;20240;-70
2021/05/02 08:16:09;;;;;;;23.27;21.27;;;;;;;5.57;100.00;97825.31;5020582;28;20204;-69
2021/05/02 08:18:36;;;;;;;23.37;21.27;;;;;;;5.64;100.00;97834.31;5023502;28;20608;-68
2021/05/02 08:21:07;;;;;;;25.20;22.90;;;;;;;5.75;100.00;97822.84;5023643;28;20201;-69
2021/05/02 08:23:34;;;;;;;25.37;22.90;;;;;;;5.92;100.00;97825.75;5023435;28;20235;-69
2021/05/02 08:26:01;;;;;;;25.77;23.53;;;;;;;6.03;100.00;97833.53;5022082;28;20235;-69
2021/05/02 08:28:36;;;;;;;22.00;20.00;;;;;;;6.11;100.00;97832.00;5021596;28;20303;-69
2021/05/02 08:31:03;;;;;;;21.87;19.87;;;;;;;6.11;100.00;97842.53;5021205;28;20252;-68
2021/05/02 08:33:30;;;;;;;21.57;19.47;;;;;;;6.06;100.00;97842.94;5018610;28;20256;-68
2021/05/02 08:35:57;;;;;;;22.93;20.57;;;;;;;6.20;100.00;97853.06;5020081;28;20219;-69
2021/05/02 08:38:24;;;;;;;20.50;18.70;;;;;;;5.96;100.00;97849.97;5021730;28;20227;-69
2021/05/02 08:40:54;;;;;;;21.10;19.20;;;;;;;6.21;100.00;97843.34;5023992;28;20204;-69
2021/05/02 08:43:21;;;;;;;20.90;18.73;;;;;;;6.06;100.00;97861.34;5021044;28;20228;-69
2021/05/02 08:45:48;;;;;;;19.93;18.13;;;;;;;6.09;100.00;97858.47;5021657;28;20699;-69
2021/05/02 08:48:20;;;;;;;19.83;18.03;;;;;;;6.28;100.00;97856.78;5018237;28;20196;-68
2021/05/02 08:50:49;;;;;;;19.17;17.53;;;;;;;6.33;100.00;97858.03;5023915;28;20208;-68
2021/05/02 08:53:16;;;;;;;19.00;17.30;;;;;;;6.33;98.58;97860.66;5019647;28;20767;-69
2021/05/02 08:55:43;;;;;;;17.97;16.27;;;;;;;6.59;98.09;97853.97;5018972;28;20581;-69
2021/05/02 08:58:15;;;;;;;17.53;16.03;;;;;;;6.49;95.78;97868.00;5018249;28;20212;-69
2021/05/02 09:00:42;;;;;;;18.53;17.03;;;;;;;6.44;97.28;97869.38;5019422;28;20216;-69
2021/05/02 09:03:10;;;;;;;16.83;15.30;;;;;;;6.72;93.03;97870.28;5018172;28;20235;-68
2021/05/02 09:05:44;;;;;;;16.50;15.00;;;;;;;6.62;89.61;97864.22;5018620;28;20296;-67
2021/05/02 09:08:11;;;;;;;17.83;16.07;;;;;;;6.46;91.20;97868.28;5016803;28;20677;-69
2021/05/02 09:10:38;;;;;;;14.63;13.43;;;;;;;6.43;89.05;97871.16;5015604;28;20212;-68
2021/05/02 09:13:13;;;;;;;16.90;15.50;;;;;;;6.27;92.80;97877.03;5017427;28;20457;-69
2021/05/02 09:15:41;;;;;;;16.90;15.20;;;;;;;6.32;93.82;97877.44;5012078;28;20219;-69
2021/05/02 09:18:15;;;;;;;17.00;15.60;;;;;;;6.42;89.36;97876.59;5019002;28;20203;-68
2021/05/02 09:20:44;;;;;;;16.43;15.03;;;;;;;6.45;91.78;97877.16;5014265;28;20229;-68
2021/05/02 09:23:12;;;;;;;17.40;15.80;;;;;;;6.47;94.09;97880.47;5021829;28;20240;-68
2021/05/02 09:25:48;;;;;;;18.10;16.37;;;;;;;6.36;97.77;97867.44;5021158;28;20293;-69
2021/05/02 09:28:15;;;;;;;16.80;15.17;;;;;;;6.43;95.34;97883.50;5022537;28;20322;-69
2021/05/02 09:30:42;;;;;;;16.43;15.13;;;;;;;6.77;92.88;97885.66;5014012;28;20215;-69
2021/05/02 09:33:24;;;;;;;18.60;16.77;;;;;;;6.56;93.35;97888.47;5015452;28;20236;-68
2021/05/02 09:35:51;;;;;;;16.83;15.23;;;;;;;6.86;89.85;97884.81;5017308;28;20619;-67
2021/05/02 09:38:19;;;;;;;16.13;14.73;;;;;;;7.00;91.04;97896.69;5018588;28;20208;-68
2021/05/02 09:40:50;;;;;;;16.73;15.30;;;;;;;7.08;89.88;97893.34;5019516;28;20584;-69
2021/05/02 09:43:35;;;;;;;17.10;15.70;;;;;;;7.02;89.58;97894.75;5016043;28;20235;-69
2021/05/02 09:46:28;;;;;;;15.07;13.70;;;;;;;7.34;89.75;97895.31;5016573;28;20208;-69
2021/05/02 09:49:16;;;;;;;16.47;15.07;;;;;;;7.22;88.69;97908.69;5017616;28;20223;-70
2021/05/02 09:51:45;;;;;;;15.23;13.93;;;;;;;7.04;84.96;97908.59;5015489;28;20216;-69
2021/05/02 09:54:14;;;;;;;14.17;12.97;;;;;;;7.42;83.67;97905.97;5020620;28;20668;-70
2021/05/02 09:56:44;;;;;;;13.37;12.37;;;;;;;7.70;79.24;97902.50;5018061;28;20692;-69
2021/05/02 09:59:25;;;;;;;14.30;13.00;;;;;;;7.36;80.73;97902.09;5016553;28;20655;-69
2021/05/02 10:02:28;;;;;;;14.87;13.67;;;;;;;7.88;82.84;97897.25;5020975;28;20204;-69
2021/05/02 10:04:57;;;;;;;14.13;12.93;;;;;;;7.77;82.11;97903.56;5016254;28;20676;-70
2021/05/02 10:07:26;;;;;;;15.30;13.73;;;;;;;7.85;83.78;97902.81;5015606;28;20211;-69
2021/05/02 10:09:53;;;;;;;14.03;12.73;;;;;;;7.86;79.33;97902.66;5016154;28;20368;-68
2021/05/02 10:12:21;;;;;;;13.70;12.40;;;;;;;7.89;78.03;97905.00;5017478;28;20231;-70
2021/05/02 10:14:50;;;;;;;13.97;12.83;;;;;;;7.90;81.90;97908.47;5018729;28;20704;-70
2021/05/02 10:17:17;;;;;;;14.87;13.63;;;;;;;7.79;77.50;97906.88;5020731;28;20204;-70
2021/05/02 10:19:45;;;;;;;14.40;13.20;;;;;;;7.87;80.08;97912.22;5020588;28;20359;-70
2021/05/02 10:22:13;;;;;;;14.73;13.57;;;;;;;7.63;81.55;97908.38;5017668;28;20220;-70
2021/05/02 10:24:40;;;;;;;14.30;13.00;;;;;;;7.57;81.97;97908.94;5017525;28;20597;-70
2021/05/02 10:27:09;;;;;;;16.27;14.97;;;;;;;7.22;86.25;97911.31;5017102;28;20208;-69
2021/05/02 10:29:39;;;;;;;15.50;14.10;;;;;;;7.19;86.15;97903.69;5017896;28;20310;-69
2021/05/02 10:32:08;;;;;;;16.17;14.93;;;;;;;7.02;86.58;97909.75;5017196;28;20315;-70
2021/05/02 10:34:36;;;;;;;14.77;13.57;;;;;;;6.73;85.48;97911.44;5021409;28;20236;-70
2021/05/02 10:37:32;;;;;;;16.07;14.77;;;;;;;6.85;85.19;97901.59;5019750;28;20224;-70
2021/05/02 10:40:02;;;;;;;16.10;14.80;;;;;;;6.91;87.77;97908.09;5022309;28;20671;-70
2021/05/02 10:42:47;;;;;;;15.20;13.93;;;;;;;7.02;86.90;97912.38;5019116;28;20223;-70
2021/05/02 10:45:41;;;;;;;16.30;14.90;;;;;;;6.97;88.65;97912.78;5020797;28;20208;-71
2021/05/02 10:48:35;;;;;;;16.73;15.17;;;;;;;7.03;88.50;97914.03;5018874;28;20651;-68
2021/05/02 10:51:04;;;;;;;16.40;14.90;;;;;;;7.10;90.93;97918.56;5012645;28;20669;-70
2021/05/02 10:53:31;;;;;;;16.57;15.07;;;;;;;7.09;86.76;97922.19;5016154;28;20679;-69
2021/05/02 10:56:01;;;;;;;16.90;15.40;;;;;;;6.92;90.08;97931.66;5017769;28;20200;-71
2021/05/02 10:58:29;;;;;;;15.77;14.47;;;;;;;6.82;90.04;97933.47;5015769;28;20208;-69
2021/05/02 11:00:59;;;;;;;15.63;14.33;;;;;;;7.00;87.30;97930.09;5013673;28;20208;-67
2021/05/02 11:03:52;;;;;;;15.83;14.47;;;;;;;6.97;87.13;97933.88;5017892;28;20228;-68
2021/05/02 11:06:48;;;;;;;16.70;15.20;;;;;;;6.77;86.23;97941.78;5016226;28;20407;-69
2021/05/02 11:09:16;;;;;;;14.40;13.17;;;;;;;6.62;84.97;97935.31;5020683;28;20213;-68
2021/05/02 11:11:46;;;;;;;15.27;13.93;;;;;;;6.72;85.15;97935.31;5018321;28;20300;-69
2021/05/02 11:14:35;;;;;;;14.13;13.03;;;;;;;6.99;82.16;97941.63;5019624;28;20214;-70
2021/05/02 11:17:20;;;;;;;13.77;12.57;;;;;;;7.08;79.93;97933.69;5020088;28;20703;-70
2021/05/02 11:19:47;;;;;;;15.50;14.23;;;;;;;7.07;84.02;97937.31;5019283;28;20258;-69
2021/05/02 11:22:15;;;;;;;14.60;13.40;;;;;;;7.24;80.66;97932.28;5020816;28;20251;-69
2021/05/02 11:24:56;;;;;;;14.77;13.50;;;;;;;7.24;79.96;97934.91;5025866;28;20243;-69
2021/05/02 11:27:46;;;;;;;14.83;13.53;;;;;;;7.26;80.38;97930.31;5024491;28;20200;-69
2021/05/02 11:30:21;;;;;;;13.40;12.17;;;;;;;7.62;78.38;97943.63;5023586;28;20580;-68